createdAt,value
2023-02-02T00:01:50.600Z,4.37
2023-02-02T00:04:25.988Z,4.43
2023-02-02T00:06:53.917Z,4.33
2023-02-02T00:09:21.106Z,4.33
2023-02-02T00:11:50.383Z,4.32
2023-02-02T00:14:18.063Z,4.37
2023-02-02T00:16:50.224Z,4.32
2023-02-02T00:19:23.081Z,4.28
2023-02-02T00:21:49.675Z,4.27
2023-02-02T00:24:20.720Z,4.24
2023-02-02T00:26:50.397Z,4.30
2023-02-02T00:29:21.152Z,4.30
2023-02-02T00:31:49.533Z,4.21
2023-02-02T00:34:17.074Z,4.29
2023-02-02T00:36:44.635Z,4.22
2023-02-02T00:39:15.294Z,4.19
2023-02-02T00:41:41.845Z,4.14
2023-02-02T00:44:26.719Z,4.14
2023-02-02T00:46:53.106Z,4.12
2023-02-02T00:49:19.698Z,4.11
2023-02-02T00:51:46.219Z,4.10
2023-02-02T00:54:14.200Z,4.11
2023-02-02T00:56:41.490Z,4.11
2023-02-02T00:59:08.939Z,4.14
2023-02-02T01:01:35.891Z,4.15
2023-02-02T01:04:02.510Z,4.03
2023-02-02T01:06:28.947Z,4.08
2023-02-02T01:08:55.478Z,3.98
2023-02-02T01:11:22.108Z,3.86
2023-02-02T01:13:48.485Z,3.80
2023-02-02T01:16:15.859Z,3.76
2023-02-02T01:18:42.522Z,3.83
2023-02-02T01:21:11.736Z,3.64
2023-02-02T01:23:38.758Z,3.65
2023-02-02T01:26:08.205Z,3.70
2023-02-02T01:28:35.319Z,3.68
2023-02-02T01:31:10.557Z,3.65
2023-02-02T01:33:38.022Z,3.66
2023-02-02T01:36:08.666Z,3.61
2023-02-02T01:38:35.267Z,3.53
2023-02-02T01:41:04.387Z,3.46
2023-02-02T01:43:53.059Z,3.41
2023-02-02T01:46:29.188Z,3.38
2023-02-02T01:49:03.982Z,3.40
2023-02-02T01:51:50.585Z,3.30
2023-02-02T01:54:34.626Z,3.31
2023-02-02T01:57:07.008Z,3.35
2023-02-02T01:59:34.877Z,3.35
2023-02-02T02:02:02.427Z,3.38
2023-02-02T02:04:31.565Z,3.37
2023-02-02T02:06:59.567Z,3.32
2023-02-02T02:09:26.106Z,3.33
2023-02-02T02:11:53.482Z,3.26
2023-02-02T02:14:39.666Z,3.28
2023-02-02T02:17:17.100Z,3.30
2023-02-02T02:20:41.031Z,3.35
2023-02-02T02:23:59.714Z,3.31
2023-02-02T02:27:04.058Z,3.37
2023-02-02T02:30:03.148Z,3.39
2023-02-02T02:32:40.968Z,3.40
2023-02-02T02:35:17.585Z,3.44
2023-02-02T02:38:08.771Z,3.41
2023-02-02T02:40:40.499Z,3.41
2023-02-02T02:43:13.838Z,3.41
2023-02-02T02:45:41.232Z,3.39
2023-02-02T02:48:10.580Z,3.41
2023-02-02T02:50:38.078Z,3.44
2023-02-02T02:53:30.882Z,3.40
2023-02-02T02:56:19.798Z,3.39
2023-02-02T02:58:59.710Z,3.46
2023-02-02T03:01:38.299Z,3.49
2023-02-02T03:04:22.560Z,3.44
2023-02-02T03:06:58.195Z,3.44
2023-02-02T03:09:32.668Z,3.47
2023-02-02T03:12:00.030Z,3.52
2023-02-02T03:14:27.119Z,3.50
2023-02-02T03:16:53.732Z,3.55
2023-02-02T03:19:20.298Z,3.56
2023-02-02T03:21:46.606Z,3.57
2023-02-02T03:24:13.111Z,3.55
2023-02-02T03:26:39.707Z,3.56
2023-02-02T03:29:06.680Z,3.56
2023-02-02T03:31:33.129Z,3.54
2023-02-02T03:33:59.630Z,3.54
2023-02-02T03:36:26.478Z,3.51
2023-02-02T03:38:53.049Z,3.53
2023-02-02T03:41:19.597Z,3.56
2023-02-02T03:43:46.189Z,3.53
2023-02-02T03:46:12.634Z,3.47
2023-02-02T03:48:39.650Z,3.47
2023-02-02T03:51:11.793Z,3.45
2023-02-02T03:53:39.709Z,3.50
2023-02-02T03:56:06.928Z,3.45
2023-02-02T03:58:33.347Z,3.42
2023-02-02T04:01:07.552Z,3.40
2023-02-02T04:03:34.539Z,3.38
2023-02-02T04:06:01.276Z,3.43
2023-02-02T04:08:28.622Z,3.40
2023-02-02T04:10:56.443Z,3.37
2023-02-02T04:13:23.409Z,3.38
2023-02-02T04:15:57.624Z,3.29
2023-02-02T04:18:24.407Z,3.28
2023-02-02T04:20:56.501Z,3.25
2023-02-02T04:23:22.939Z,3.23
2023-02-02T04:25:50.790Z,3.16
2023-02-02T04:28:17.423Z,3.17
2023-02-02T04:30:43.986Z,3.20
2023-02-02T04:33:10.587Z,3.12
2023-02-02T04:35:37.165Z,3.15
2023-02-02T04:38:03.685Z,3.13
2023-02-02T04:40:30.321Z,3.08
2023-02-02T04:42:57.955Z,3.04
2023-02-02T04:45:24.927Z,3.05
2023-02-02T04:47:51.688Z,2.98
2023-02-02T04:50:18.365Z,3.00
2023-02-02T04:52:44.818Z,2.98
2023-02-02T04:55:11.399Z,3.03
2023-02-02T04:57:37.968Z,3.04
2023-02-02T05:00:04.975Z,3.03
2023-02-02T05:02:31.607Z,3.06
2023-02-02T05:04:58.135Z,3.07
2023-02-02T05:07:24.719Z,3.09
2023-02-02T05:09:51.271Z,3.13
2023-02-02T05:12:17.846Z,3.11
2023-02-02T05:14:44.405Z,3.07
2023-02-02T05:17:10.895Z,3.09
2023-02-02T05:19:37.427Z,3.15
2023-02-02T05:22:03.858Z,3.11
2023-02-02T05:24:30.448Z,3.10
2023-02-02T05:27:00.437Z,3.15
2023-02-02T05:29:28.454Z,3.14
2023-02-02T05:31:55.666Z,3.16
2023-02-02T05:34:22.804Z,3.16
2023-02-02T05:36:49.488Z,3.17
2023-02-02T05:39:16.053Z,3.21
2023-02-02T05:41:42.445Z,3.16
2023-02-02T05:44:11.998Z,3.20
2023-02-02T05:46:38.512Z,3.18
2023-02-02T05:49:05.355Z,3.22
2023-02-02T05:51:40.799Z,3.26
2023-02-02T05:54:07.186Z,3.22
2023-02-02T05:56:33.671Z,3.26
2023-02-02T05:59:00.368Z,3.27
2023-02-02T06:01:27.117Z,3.33
2023-02-02T06:03:53.880Z,3.38
2023-02-02T06:06:20.445Z,3.40
2023-02-02T06:08:47.447Z,3.47
2023-02-02T06:11:16.825Z,3.48
2023-02-02T06:13:45.821Z,3.53
2023-02-02T06:16:12.809Z,3.59
2023-02-02T06:18:39.524Z,3.59
2023-02-02T06:21:06.937Z,3.63
2023-02-02T06:23:34.333Z,3.63
2023-02-02T06:26:01.638Z,3.63
2023-02-02T06:28:28.177Z,3.66
2023-02-02T06:30:54.773Z,3.69
2023-02-02T06:33:21.207Z,3.67
2023-02-02T06:35:47.612Z,3.70
2023-02-02T06:38:14.180Z,3.71
2023-02-02T06:40:40.757Z,3.73
2023-02-02T06:43:09.128Z,3.76
2023-02-02T06:45:40.338Z,3.80
2023-02-02T06:48:10.787Z,3.78
2023-02-02T06:50:38.348Z,3.78
2023-02-02T06:53:05.236Z,3.80
2023-02-02T06:55:32.093Z,3.86
2023-02-02T06:58:00.418Z,3.83
2023-02-02T07:00:28.859Z,3.85
2023-02-02T07:02:55.945Z,3.86
2023-02-02T07:05:24.502Z,3.85
2023-02-02T07:07:51.643Z,3.86
2023-02-02T07:11:14.055Z,3.92
2023-02-02T07:13:07.080Z,3.89
2023-02-02T07:15:34.747Z,3.93
2023-02-02T07:18:01.728Z,3.90
2023-02-02T07:20:28.352Z,3.92
2023-02-02T07:22:55.154Z,3.92
2023-02-02T07:25:22.184Z,3.94
2023-02-02T07:27:53.247Z,3.96
2023-02-02T07:30:20.848Z,3.94
2023-02-02T07:32:48.805Z,3.98
2023-02-02T07:35:18.721Z,3.97
2023-02-02T07:37:51.875Z,3.98
2023-02-02T07:40:18.502Z,3.95
2023-02-02T07:42:48.003Z,3.98
2023-02-02T07:45:24.644Z,4.11
2023-02-02T07:48:02.936Z,4.04
2023-02-02T07:50:30.837Z,4.05
2023-02-02T07:52:59.062Z,4.08
2023-02-02T07:55:25.497Z,4.09
2023-02-02T07:57:52.925Z,4.10
2023-02-02T08:00:20.053Z,4.11
2023-02-02T08:02:49.524Z,4.13
2023-02-02T08:05:16.377Z,4.19
2023-02-02T08:07:43.503Z,4.21
2023-02-02T08:10:10.809Z,4.18
2023-02-02T08:12:37.348Z,4.18
2023-02-02T08:15:04.188Z,4.20
2023-02-02T08:17:30.715Z,4.27
2023-02-02T08:19:57.247Z,4.30
2023-02-02T08:22:23.714Z,4.28
2023-02-02T08:24:50.359Z,4.28
2023-02-02T08:27:17.048Z,4.31
2023-02-02T08:29:43.898Z,4.35
2023-02-02T08:32:10.544Z,4.34
2023-02-02T08:34:37.265Z,4.32
2023-02-02T08:37:04.425Z,4.32
2023-02-02T08:39:31.007Z,4.35
2023-02-02T08:41:57.947Z,4.42
2023-02-02T08:44:27.622Z,4.41
2023-02-02T08:47:09.641Z,4.45
2023-02-02T08:49:36.278Z,4.43
2023-02-02T08:52:03.090Z,4.42
2023-02-02T08:54:29.668Z,4.46
2023-02-02T08:56:56.660Z,4.47
2023-02-02T08:59:23.308Z,4.49
2023-02-02T09:01:49.714Z,4.52
2023-02-02T09:04:16.235Z,4.56
2023-02-02T09:06:43.254Z,4.55
2023-02-02T09:09:13.919Z,4.55
2023-02-02T09:11:41.326Z,4.56
2023-02-02T09:14:08.318Z,4.53
2023-02-02T09:16:35.811Z,4.53
2023-02-02T09:19:03.067Z,4.55
2023-02-02T09:21:29.480Z,4.62
2023-02-02T09:23:56.119Z,4.60
2023-02-02T09:26:27.804Z,4.60
2023-02-02T09:28:57.539Z,4.60
2023-02-02T09:31:25.747Z,4.66
2023-02-02T09:33:52.318Z,4.67
2023-02-02T09:36:21.666Z,4.62
2023-02-02T09:38:49.325Z,4.62
2023-02-02T09:41:33.782Z,4.59
2023-02-02T09:44:18.640Z,4.62
2023-02-02T09:47:05.005Z,4.56
2023-02-02T09:49:40.852Z,4.57
2023-02-02T09:52:14.555Z,4.62
2023-02-02T09:54:44.890Z,4.57
2023-02-02T09:57:22.497Z,4.55
2023-02-02T09:59:51.247Z,4.55
2023-02-02T10:02:22.507Z,4.60
2023-02-02T10:04:55.617Z,4.58
2023-02-02T10:07:34.949Z,4.54
2023-02-02T10:10:10.784Z,4.59
2023-02-02T10:12:43.781Z,4.55
2023-02-02T10:15:26.506Z,4.61
2023-02-02T10:18:12.065Z,4.58
2023-02-02T10:20:54.215Z,4.66
2023-02-02T10:23:29.249Z,4.66
2023-02-02T10:26:28.122Z,4.66
2023-02-02T10:29:24.975Z,4.69
2023-02-02T10:32:10.228Z,4.77
2023-02-02T10:35:15.123Z,4.84
2023-02-02T10:37:54.261Z,4.85
2023-02-02T10:40:45.717Z,4.94
2023-02-02T10:43:45.910Z,5.02
2023-02-02T10:46:40.773Z,5.02
2023-02-02T10:49:07.137Z,5.05
2023-02-02T10:51:33.941Z,5.04
2023-02-02T10:54:05.360Z,5.07
2023-02-02T10:56:39.651Z,5.18
2023-02-02T10:59:12.809Z,5.19
2023-02-02T11:01:39.403Z,5.23
2023-02-02T11:04:24.970Z,5.29
2023-02-02T11:06:51.914Z,5.34
2023-02-02T11:09:26.468Z,5.38
2023-02-02T11:12:25.582Z,5.32
2023-02-02T11:15:27.072Z,5.37
2023-02-02T11:17:54.332Z,5.29
2023-02-02T11:20:32.945Z,5.42
2023-02-02T11:23:02.330Z,5.35
2023-02-02T11:25:35.227Z,5.27
2023-02-02T11:28:20.274Z,5.19
2023-02-02T11:30:52.546Z,5.25
2023-02-02T11:33:30.851Z,5.25
2023-02-02T11:36:04.058Z,5.21
2023-02-02T11:38:30.869Z,5.18
2023-02-02T11:41:02.494Z,5.24
2023-02-02T11:43:41.375Z,5.11
2023-02-02T11:46:18.664Z,5.21
2023-02-02T11:49:08.492Z,5.20
2023-02-02T11:51:35.324Z,5.12
2023-02-02T11:54:07.674Z,5.10
2023-02-02T11:56:37.187Z,5.03
2023-02-02T11:59:04.378Z,5.11
2023-02-02T12:01:34.118Z,5.11
2023-02-02T12:04:03.069Z,5.15
2023-02-02T12:06:32.581Z,5.19
2023-02-02T12:09:01.686Z,5.12
2023-02-02T12:11:43.873Z,5.24
2023-02-02T12:14:19.300Z,5.14
2023-02-02T12:17:04.540Z,5.16
2023-02-02T12:19:56.255Z,5.11
2023-02-02T12:22:49.102Z,5.02
2023-02-02T12:25:35.592Z,5.03
2023-02-02T12:28:12.596Z,5.10
2023-02-02T12:30:52.625Z,5.05
2023-02-02T12:33:44.236Z,4.98
2023-02-02T12:36:20.816Z,5.04
2023-02-02T12:38:58.058Z,5.01
2023-02-02T12:41:46.925Z,5.04
2023-02-02T12:44:44.908Z,5.02
2023-02-02T12:47:20.998Z,4.97
2023-02-02T12:50:14.270Z,4.99
2023-02-02T12:52:57.673Z,4.95
2023-02-02T12:56:05.587Z,4.97
2023-02-02T12:58:58.873Z,4.91
2023-02-02T13:02:04.205Z,4.91
2023-02-02T13:04:53.238Z,4.88
2023-02-02T13:07:24.700Z,4.91
2023-02-02T13:10:03.269Z,4.91
2023-02-02T13:12:36.100Z,4.86
2023-02-02T13:15:07.769Z,4.86
2023-02-02T13:17:39.371Z,4.83
2023-02-02T13:20:25.031Z,4.87
2023-02-02T13:22:56.899Z,4.86
2023-02-02T13:25:30.077Z,4.81
2023-02-02T13:27:59.891Z,4.85
2023-02-02T13:30:34.310Z,4.76
2023-02-02T13:33:16.278Z,4.84
2023-02-02T13:35:54.235Z,4.87
2023-02-02T13:38:26.134Z,4.85
2023-02-02T13:40:59.412Z,4.75
2023-02-02T13:43:57.146Z,4.79
2023-02-02T13:46:36.271Z,4.76
2023-02-02T13:49:30.929Z,4.71
2023-02-02T13:52:16.123Z,4.70
2023-02-02T13:55:04.545Z,4.66
2023-02-02T13:57:57.578Z,4.68
2023-02-02T14:00:30.445Z,4.66
2023-02-02T14:03:00.114Z,4.57
2023-02-02T14:05:31.254Z,4.57
2023-02-02T14:08:04.215Z,4.66
2023-02-02T14:10:42.377Z,4.64
2023-02-02T14:13:56.733Z,4.61
2023-02-02T14:16:32.178Z,4.60
2023-02-02T14:19:00.788Z,4.58
2023-02-02T14:22:06.316Z,4.63
2023-02-02T14:24:36.000Z,4.62
2023-02-02T14:27:31.644Z,4.61
2023-02-02T14:30:00.163Z,4.65
2023-02-02T14:32:30.753Z,4.73
2023-02-02T14:35:06.121Z,4.63
2023-02-02T14:37:48.166Z,4.72
2023-02-02T14:40:47.076Z,4.67
2023-02-02T14:43:44.363Z,4.73
2023-02-02T14:46:14.185Z,4.77
2023-02-02T14:48:47.961Z,4.78
2023-02-02T14:51:28.253Z,4.70
2023-02-02T14:53:59.280Z,4.75
2023-02-02T14:56:45.651Z,4.83
2023-02-02T14:59:26.839Z,4.74
2023-02-02T15:02:01.365Z,4.75
2023-02-02T15:04:29.424Z,4.73
2023-02-02T15:06:56.708Z,4.80
2023-02-02T15:09:23.519Z,4.81
2023-02-02T15:12:01.231Z,4.75
2023-02-02T15:14:32.007Z,4.82
2023-02-02T15:17:04.557Z,4.81
2023-02-02T15:19:37.854Z,4.81
2023-02-02T15:22:26.960Z,4.82
2023-02-02T15:24:54.577Z,4.78
2023-02-02T15:27:25.188Z,4.91
2023-02-02T15:29:58.691Z,4.84
2023-02-02T15:32:28.485Z,4.83
2023-02-02T15:35:01.709Z,4.77
2023-02-02T15:37:40.459Z,4.77
2023-02-02T15:40:16.151Z,4.80
2023-02-02T15:42:53.449Z,4.81
2023-02-02T15:45:37.928Z,4.82
2023-02-02T15:48:18.645Z,4.88
2023-02-02T15:50:51.248Z,4.85
2023-02-02T15:53:21.044Z,4.81
2023-02-02T15:55:47.691Z,4.83
2023-02-02T15:58:24.393Z,4.84
2023-02-02T16:01:19.168Z,4.88
2023-02-02T16:03:56.363Z,4.91
2023-02-02T16:06:22.969Z,4.91
2023-02-02T16:08:49.552Z,4.96
2023-02-02T16:11:19.952Z,4.98
2023-02-02T16:14:01.913Z,4.91
2023-02-02T16:16:36.462Z,4.97
2023-02-02T16:19:09.329Z,4.91
2023-02-02T16:21:41.689Z,4.90
2023-02-02T16:24:15.834Z,4.85
2023-02-02T16:26:42.400Z,4.90
2023-02-02T16:29:17.439Z,4.84
2023-02-02T16:31:49.779Z,4.80
2023-02-02T16:34:18.471Z,4.80
2023-02-02T16:37:03.707Z,4.73
2023-02-02T16:39:30.110Z,4.75
2023-02-02T16:42:10.757Z,4.72
2023-02-02T16:44:45.233Z,4.74
2023-02-02T16:47:26.896Z,4.72
2023-02-02T16:50:14.854Z,4.69
2023-02-02T16:52:57.418Z,4.71
2023-02-02T16:55:31.529Z,4.70
2023-02-02T16:58:06.302Z,4.68
2023-02-02T17:00:33.520Z,4.70
2023-02-02T17:03:05.556Z,4.62
2023-02-02T17:05:37.182Z,4.64
2023-02-02T17:08:07.359Z,4.67
2023-02-02T17:10:39.181Z,4.66
2023-02-02T17:13:30.671Z,4.72
2023-02-02T17:15:58.305Z,4.72
2023-02-02T17:18:25.222Z,4.68
2023-02-02T17:20:58.305Z,4.69
2023-02-02T17:23:28.540Z,4.75
2023-02-02T17:25:55.490Z,4.72
2023-02-02T17:28:24.381Z,4.76
2023-02-02T17:31:07.325Z,4.78
2023-02-02T17:33:35.389Z,4.81
2023-02-02T17:36:02.588Z,4.85
2023-02-02T17:38:29.335Z,4.80
2023-02-02T17:41:01.128Z,4.87
2023-02-02T17:43:28.910Z,4.81
2023-02-02T17:45:55.822Z,4.88
2023-02-02T17:48:22.414Z,4.90
2023-02-02T17:50:49.310Z,4.87
2023-02-02T17:53:19.216Z,4.93
2023-02-02T17:55:47.154Z,4.94
2023-02-02T17:58:17.195Z,4.88
2023-02-02T18:00:52.029Z,4.90
2023-02-02T18:03:31.914Z,4.94
2023-02-02T18:06:02.853Z,4.92
2023-02-02T18:08:31.453Z,4.99
2023-02-02T18:10:59.350Z,4.91
2023-02-02T18:13:26.328Z,4.85
2023-02-02T18:15:53.922Z,4.87
2023-02-02T18:18:20.498Z,4.87
2023-02-02T18:20:49.458Z,4.83
2023-02-02T18:23:17.131Z,4.80
2023-02-02T18:25:44.545Z,4.76
2023-02-02T18:28:11.458Z,4.79
2023-02-02T18:30:39.047Z,4.79
2023-02-02T18:33:08.131Z,4.79
2023-02-02T18:35:35.171Z,4.73
2023-02-02T18:38:01.559Z,4.71
2023-02-02T18:40:27.985Z,4.76
2023-02-02T18:42:54.528Z,4.74
2023-02-02T18:45:20.876Z,4.71
2023-02-02T18:47:47.371Z,4.69
2023-02-02T18:50:14.224Z,4.77
2023-02-02T18:52:40.828Z,4.69
2023-02-02T18:55:07.684Z,4.76
2023-02-02T18:57:34.254Z,4.70
2023-02-02T19:00:00.627Z,4.76
2023-02-02T19:02:27.188Z,4.71
2023-02-02T19:05:12.528Z,4.74
2023-02-02T19:07:58.157Z,4.73
2023-02-02T19:10:27.333Z,4.70
2023-02-02T19:13:06.680Z,4.76
2023-02-02T19:15:37.177Z,4.70
2023-02-02T19:18:15.251Z,4.71
2023-02-02T19:20:42.780Z,4.73
2023-02-02T19:23:23.475Z,4.73
2023-02-02T19:25:55.506Z,4.71
2023-02-02T19:28:23.889Z,4.76
2023-02-02T19:30:56.014Z,4.75
2023-02-02T19:33:34.212Z,4.78
2023-02-02T19:36:00.757Z,4.77
2023-02-02T19:38:29.700Z,4.74
2023-02-02T19:40:56.269Z,4.76
2023-02-02T19:43:28.614Z,4.77
2023-02-02T19:45:59.351Z,4.74
2023-02-02T19:48:31.119Z,4.77
2023-02-02T19:50:58.099Z,4.76
2023-02-02T19:53:30.339Z,4.77
2023-02-02T19:55:56.893Z,4.70
2023-02-02T19:58:28.627Z,4.74
2023-02-02T20:00:56.233Z,4.72
2023-02-02T20:03:26.015Z,4.70
2023-02-02T20:05:55.928Z,4.70
2023-02-02T20:08:25.439Z,4.71
2023-02-02T20:10:54.375Z,4.70
2023-02-02T20:13:23.582Z,4.70
2023-02-02T20:15:54.692Z,4.69
2023-02-02T20:18:42.601Z,4.71
2023-02-02T20:21:20.036Z,4.69
2023-02-02T20:23:46.981Z,4.70
2023-02-02T20:26:24.256Z,4.72
2023-02-02T20:28:52.776Z,4.69
2023-02-02T20:31:23.742Z,4.67
2023-02-02T20:33:57.505Z,4.76
2023-02-02T20:36:40.062Z,4.74
2023-02-02T20:39:25.380Z,4.77
2023-02-02T20:41:54.308Z,4.77
2023-02-02T20:44:21.526Z,4.83
2023-02-02T20:46:47.952Z,4.81
2023-02-02T20:49:14.574Z,4.84
2023-02-02T20:51:41.399Z,4.83
2023-02-02T20:54:10.027Z,4.84
2023-02-02T20:56:37.056Z,4.92
2023-02-02T20:59:06.989Z,4.90
2023-02-02T21:01:33.871Z,4.90
2023-02-02T21:04:00.297Z,4.84
2023-02-02T21:06:28.625Z,4.89
2023-02-02T21:08:55.310Z,4.82
2023-02-02T21:11:21.910Z,4.92
2023-02-02T21:13:50.211Z,4.86
2023-02-02T21:16:17.187Z,4.81
2023-02-02T21:18:47.278Z,4.86
2023-02-02T21:21:15.752Z,4.82
2023-02-02T21:23:50.835Z,4.78
2023-02-02T21:26:23.650Z,4.78
2023-02-02T21:28:50.051Z,4.79
2023-02-02T21:31:17.958Z,4.83
2023-02-02T21:33:46.090Z,4.76
2023-02-02T21:36:33.311Z,4.78
2023-02-02T21:39:27.268Z,4.77
2023-02-02T21:42:09.229Z,4.76
2023-02-02T21:44:38.564Z,4.79
2023-02-02T21:47:19.545Z,4.82
2023-02-02T21:49:45.967Z,4.78
2023-02-02T21:52:15.898Z,4.81
2023-02-02T21:54:42.974Z,4.78
2023-02-02T21:57:16.885Z,4.79
2023-02-02T21:59:45.689Z,4.75
2023-02-02T22:02:39.152Z,4.78
2023-02-02T22:05:27.957Z,4.81
2023-02-02T22:07:58.867Z,4.80
2023-02-02T22:10:42.962Z,4.72
2023-02-02T22:13:22.927Z,4.76
2023-02-02T22:15:51.649Z,4.66
2023-02-02T22:18:21.996Z,4.72
2023-02-02T22:20:50.854Z,4.62
2023-02-02T22:23:26.464Z,4.62
2023-02-02T22:25:55.716Z,4.70
2023-02-02T22:28:27.358Z,4.63
2023-02-02T22:30:55.613Z,4.63
2023-02-02T22:33:23.412Z,4.66
2023-02-02T22:35:49.850Z,4.66
2023-02-02T22:38:19.051Z,4.60
2023-02-02T22:40:46.695Z,4.63
2023-02-02T22:43:16.252Z,4.60
2023-02-02T22:45:43.769Z,4.58
2023-02-02T22:48:10.944Z,4.57
2023-02-02T22:50:37.503Z,4.56
2023-02-02T22:53:04.943Z,4.58
2023-02-02T22:55:32.199Z,4.55
2023-02-02T22:57:58.846Z,4.52
2023-02-02T23:00:30.135Z,4.57
2023-02-02T23:02:56.940Z,4.51
2023-02-02T23:05:25.177Z,4.52
2023-02-02T23:07:51.976Z,4.52
2023-02-02T23:10:20.908Z,4.51
2023-02-02T23:12:47.927Z,4.49
2023-02-02T23:15:15.255Z,4.48
2023-02-02T23:17:42.234Z,4.43
2023-02-02T23:20:11.763Z,4.47
2023-02-02T23:22:38.303Z,4.43
2023-02-02T23:25:05.443Z,4.42
2023-02-02T23:27:32.285Z,4.40
2023-02-02T23:29:58.775Z,4.45
2023-02-02T23:32:25.313Z,4.43
2023-02-02T23:34:51.673Z,4.39
2023-02-02T23:37:18.015Z,4.40
2023-02-02T23:39:45.587Z,4.41
2023-02-02T23:42:12.091Z,4.44
2023-02-02T23:44:38.642Z,4.41
2023-02-02T23:47:05.384Z,4.41
2023-02-02T23:49:32.967Z,4.48
2023-02-02T23:52:00.133Z,4.47
2023-02-02T23:54:27.522Z,4.47
2023-02-02T23:56:54.127Z,4.45
2023-02-02T23:59:20.611Z,4.45
